Terminal Aerodrome Forecast
Issued by NWS

Home | Current Version | Previous Version | Text Only | Print | Product List | Glossary On
Versions: 1 2 3 4 5 6 7 8 9 10 11 12 13 14 15 16
096
FTUS42 KFFC 222321
TAFRYY
TAF
KRYY 222321Z 2300/2324 22005KT P6SM SCT045 BKN250
     FM230100 21004KT P6SM SCT250
     FM231500 25006KT P6SM SCT035
     FM231700 25007KT P6SM VCSH BKN035 PROB30 2320/2324 3SM TSRA
      BKN035CB
      AMD NOT SKED 2304/2312=

USA.gov is the U.S. government's official web portal to all federal, state and local government web resources and services.